createdAt,value
2022-10-11T00:00:20.575Z,11.43
2022-10-11T00:02:48.198Z,10.90
2022-10-11T00:05:15.820Z,10.88
2022-10-11T00:07:43.527Z,15.70
2022-10-11T00:10:11.180Z,13.85
2022-10-11T00:12:38.791Z,14.27
2022-10-11T00:15:07.824Z,13.95
2022-10-11T00:17:36.771Z,14.27
2022-10-11T00:20:04.911Z,15.63
2022-10-11T00:22:32.499Z,16.10
2022-10-11T00:25:00.422Z,12.90
2022-10-11T00:27:28.325Z,14.02
2022-10-11T00:29:56.043Z,12.23
2022-10-11T00:32:23.687Z,11.48
2022-10-11T00:34:52.694Z,11.40
2022-10-11T00:37:20.588Z,11.35
2022-10-11T00:39:48.252Z,11.00
2022-10-11T00:42:17.178Z,12.25
2022-10-11T00:44:47.580Z,11.65
2022-10-11T00:47:18.139Z,11.10
2022-10-11T00:49:48.155Z,11.75
2022-10-11T00:52:21.917Z,12.95
2022-10-11T00:54:50.293Z,12.13
2022-10-11T00:57:21.346Z,11.48
2022-10-11T00:59:51.132Z,12.43
2022-10-11T01:02:19.739Z,12.82
2022-10-11T01:04:47.550Z,11.98
2022-10-11T01:07:15.228Z,11.45
2022-10-11T01:09:44.220Z,13.05
2022-10-11T01:12:16.154Z,11.82
2022-10-11T01:14:56.314Z,12.43
2022-10-11T01:17:29.481Z,11.15
2022-10-11T01:20:22.184Z,12.30
2022-10-11T01:23:05.702Z,12.68
2022-10-11T01:25:37.572Z,11.73
2022-10-11T01:28:17.367Z,12.32
2022-10-11T01:30:47.113Z,13.00
2022-10-11T01:33:21.303Z,12.77
2022-10-11T01:35:53.942Z,13.45
2022-10-11T01:38:25.837Z,12.95
2022-10-11T01:40:56.331Z,12.20
2022-10-11T01:43:25.384Z,11.93
2022-10-11T01:45:56.074Z,12.30
2022-10-11T01:48:23.696Z,12.23
2022-10-11T01:50:52.468Z,11.50
2022-10-11T01:53:36.520Z,12.38
2022-10-11T01:56:12.734Z,12.27
2022-10-11T01:58:49.848Z,12.43
2022-10-11T02:01:23.825Z,12.98
2022-10-11T02:03:57.848Z,12.32
2022-10-11T02:06:32.313Z,13.10
2022-10-11T02:09:08.204Z,13.05
2022-10-11T02:11:36.325Z,12.68
2022-10-11T02:14:07.617Z,13.02
2022-10-11T02:16:40.643Z,12.50
2022-10-11T02:19:09.956Z,12.48
2022-10-11T02:21:39.720Z,12.50
2022-10-11T02:24:10.613Z,12.20
2022-10-11T02:26:40.659Z,12.27
2022-10-11T02:29:11.038Z,12.23
2022-10-11T02:31:40.887Z,11.90
2022-10-11T02:34:13.244Z,12.48
2022-10-11T02:36:48.440Z,13.82
2022-10-11T02:39:19.761Z,12.45
2022-10-11T02:41:47.698Z,13.37
2022-10-11T02:44:18.242Z,12.20
2022-10-11T02:46:47.878Z,13.43
2022-10-11T02:49:16.545Z,11.88
2022-10-11T02:51:44.254Z,12.10
2022-10-11T02:54:11.875Z,12.02
2022-10-11T02:56:39.505Z,13.00
2022-10-11T02:59:07.169Z,12.20
2022-10-11T03:01:34.892Z,12.50
2022-10-11T03:04:03.943Z,11.85
2022-10-11T03:06:31.646Z,12.27
2022-10-11T03:08:59.284Z,13.02
2022-10-11T03:11:27.138Z,12.48
2022-10-11T03:13:54.826Z,12.10
2022-10-11T03:16:22.522Z,12.30
2022-10-11T03:18:50.182Z,12.48
2022-10-11T03:21:19.469Z,12.30
2022-10-11T03:23:47.108Z,11.65
2022-10-11T03:26:14.717Z,12.70
2022-10-11T03:28:42.498Z,12.15
2022-10-11T03:31:10.195Z,12.45
2022-10-11T03:33:37.832Z,14.02
2022-10-11T03:36:06.628Z,12.98
2022-10-11T03:38:35.909Z,12.68
2022-10-11T03:41:03.602Z,12.65
2022-10-11T03:43:31.236Z,13.68
2022-10-11T03:45:58.882Z,13.75
2022-10-11T03:48:26.603Z,12.35
2022-10-11T03:50:54.246Z,11.13
2022-10-11T03:53:21.933Z,11.25
2022-10-11T03:55:54.935Z,11.45
2022-10-11T03:58:23.440Z,12.20
2022-10-11T04:00:52.662Z,11.35
2022-10-11T04:03:20.329Z,12.90
2022-10-11T04:05:47.994Z,11.85
2022-10-11T04:08:15.605Z,12.32
2022-10-11T04:10:43.272Z,11.80
2022-10-11T04:13:13.090Z,12.75
2022-10-11T04:15:41.280Z,11.60
2022-10-11T04:18:09.507Z,12.07
2022-10-11T04:20:37.372Z,12.30
2022-10-11T04:23:04.989Z,12.75
2022-10-11T04:25:32.633Z,12.38
2022-10-11T04:28:00.289Z,12.57
2022-10-11T04:30:29.303Z,12.93
2022-10-11T04:32:57.309Z,13.40
2022-10-11T04:35:24.956Z,12.65
2022-10-11T04:37:52.577Z,12.23
2022-10-11T04:40:20.276Z,12.07
2022-10-11T04:42:47.966Z,11.98
2022-10-11T04:45:15.608Z,12.65
2022-10-11T04:47:44.596Z,11.85
2022-10-11T04:50:12.205Z,12.75
2022-10-11T04:52:39.873Z,11.82
2022-10-11T04:55:08.056Z,12.43
2022-10-11T04:57:35.686Z,11.63
2022-10-11T05:00:03.523Z,11.90
2022-10-11T05:02:31.275Z,12.63
2022-10-11T05:05:00.309Z,12.98
2022-10-11T05:07:27.939Z,12.65
2022-10-11T05:09:55.593Z,12.75
2022-10-11T05:12:23.330Z,12.43
2022-10-11T05:14:50.960Z,12.77
2022-10-11T05:17:18.700Z,13.10
2022-10-11T05:19:46.345Z,13.07
2022-10-11T05:22:15.432Z,13.35
2022-10-11T05:24:43.030Z,13.10
2022-10-11T05:27:10.734Z,13.27
2022-10-11T05:29:38.469Z,12.52
2022-10-11T05:32:06.499Z,14.15
2022-10-11T05:34:34.199Z,13.15
2022-10-11T05:37:01.858Z,13.40
2022-10-11T05:39:30.929Z,13.45
2022-10-11T05:41:58.593Z,13.48
2022-10-11T05:44:26.505Z,13.23
2022-10-11T05:46:54.220Z,13.07
2022-10-11T05:49:21.892Z,13.32
2022-10-11T05:51:49.611Z,13.93
2022-10-11T05:54:17.233Z,12.68
2022-10-11T05:56:46.300Z,12.63
2022-10-11T05:59:13.966Z,12.25
2022-10-11T06:01:41.702Z,12.98
2022-10-11T06:04:10.041Z,11.30
2022-10-11T06:06:37.730Z,12.77
2022-10-11T06:09:05.372Z,11.93
2022-10-11T06:11:33.030Z,12.93
2022-10-11T06:14:02.055Z,13.48
2022-10-11T06:16:29.709Z,13.27
2022-10-11T06:18:58.377Z,13.63
2022-10-11T06:21:26.067Z,17.60
2022-10-11T06:23:59.864Z,15.13
2022-10-11T06:26:28.714Z,12.65
2022-10-11T06:28:56.459Z,12.23
2022-10-11T06:31:25.907Z,12.77
2022-10-11T06:33:53.604Z,12.73
2022-10-11T06:36:21.234Z,13.13
2022-10-11T06:38:48.840Z,11.88
2022-10-11T06:41:19.469Z,12.82
2022-10-11T06:43:49.340Z,13.32
2022-10-11T06:46:17.333Z,13.98
2022-10-11T06:48:47.435Z,15.02
2022-10-11T06:51:17.105Z,15.27
2022-10-11T06:53:44.859Z,32.95
2022-10-11T06:56:13.946Z,29.98
2022-10-11T06:58:41.636Z,17.13
2022-10-11T07:01:11.505Z,15.20
2022-10-11T07:03:39.298Z,15.73
2022-10-11T07:06:10.824Z,14.73
2022-10-11T07:08:38.954Z,15.05
2022-10-11T07:11:08.204Z,14.50
2022-10-11T07:13:36.071Z,14.82
2022-10-11T07:16:04.271Z,15.30
2022-10-11T07:18:32.790Z,14.30
2022-10-11T07:21:03.089Z,13.93
2022-10-11T07:23:32.141Z,13.88
2022-10-11T07:25:59.834Z,13.80
2022-10-11T07:28:28.971Z,13.13
2022-10-11T07:30:56.972Z,13.00
2022-10-11T07:33:24.783Z,12.93
2022-10-11T07:35:52.516Z,12.60
2022-10-11T07:38:20.174Z,12.90
2022-10-11T07:40:49.165Z,13.18
2022-10-11T07:43:16.783Z,12.65
2022-10-11T07:45:45.619Z,12.93
2022-10-11T07:48:13.310Z,12.07
2022-10-11T07:50:41.053Z,13.10
2022-10-11T07:53:09.952Z,12.30
2022-10-11T07:55:40.138Z,12.38
2022-10-11T07:58:09.552Z,12.75
2022-10-11T08:00:37.648Z,12.88
2022-10-11T08:03:05.707Z,13.02
2022-10-11T08:05:33.711Z,12.20
2022-10-11T08:08:01.371Z,12.15
2022-10-11T08:10:29.126Z,11.82
2022-10-11T08:13:00.621Z,12.93
2022-10-11T08:15:33.074Z,12.85
2022-10-11T08:18:00.865Z,12.60
2022-10-11T08:20:28.568Z,14.10
2022-10-11T08:22:56.405Z,13.70
2022-10-11T08:25:24.056Z,12.88
2022-10-11T08:27:51.728Z,12.38
2022-10-11T08:30:19.589Z,13.02
2022-10-11T08:32:48.633Z,12.93
2022-10-11T08:35:16.463Z,13.63
2022-10-11T08:37:44.112Z,13.13
2022-10-11T08:40:16.480Z,12.35
2022-10-11T08:42:47.594Z,13.48
2022-10-11T08:45:22.978Z,13.18
2022-10-11T08:47:52.200Z,15.32
2022-10-11T08:50:21.695Z,14.50
2022-10-11T08:52:52.285Z,13.20
2022-10-11T08:55:24.413Z,13.82
2022-10-11T09:00:32.095Z,13.25
2022-10-11T09:03:09.034Z,13.27
2022-10-11T09:05:43.780Z,13.48
2022-10-11T09:08:16.116Z,13.25
2022-10-11T09:10:58.612Z,13.93
2022-10-11T09:13:43.744Z,12.57
2022-10-11T09:16:19.961Z,12.43
2022-10-11T09:19:04.827Z,13.15
2022-10-11T09:21:36.898Z,13.00
2022-10-11T09:24:16.116Z,13.65
2022-10-11T09:26:52.452Z,12.63
2022-10-11T09:29:25.887Z,14.68
2022-10-11T09:31:55.371Z,13.98
2022-10-11T09:34:26.902Z,15.77
2022-10-11T09:37:00.070Z,14.52
2022-10-11T09:39:30.984Z,15.00
2022-10-11T09:42:02.238Z,14.73
2022-10-11T09:44:31.689Z,14.57
2022-10-11T09:46:59.388Z,16.08
2022-10-11T09:49:32.569Z,15.07
2022-10-11T09:52:02.291Z,14.55
2022-10-11T09:54:41.014Z,15.48
2022-10-11T09:57:20.392Z,15.73
2022-10-11T10:00:00.310Z,15.40
2022-10-11T10:02:28.386Z,15.52
2022-10-11T10:05:14.739Z,17.98
2022-10-11T10:08:02.860Z,16.25
2022-10-11T10:10:36.000Z,15.88
2022-10-11T10:13:05.762Z,15.18
2022-10-11T10:15:35.544Z,15.45
2022-10-11T10:18:03.916Z,15.10
2022-10-11T10:20:35.311Z,15.95
2022-10-11T10:23:08.230Z,16.92
2022-10-11T10:25:43.037Z,16.13
2022-10-11T10:28:20.445Z,16.00
2022-10-11T10:30:54.427Z,16.27
2022-10-11T10:33:24.573Z,14.70
2022-10-11T10:35:55.319Z,14.55
2022-10-11T10:38:27.766Z,14.68
2022-10-11T10:40:58.224Z,15.50
2022-10-11T10:43:27.792Z,15.40
2022-10-11T10:46:09.753Z,15.50
2022-10-11T10:49:23.242Z,13.90
2022-10-11T10:51:40.685Z,14.13
2022-10-11T10:54:18.440Z,15.30
2022-10-11T10:56:48.575Z,14.70
2022-10-11T10:59:35.419Z,16.02
2022-10-11T11:02:28.080Z,14.82
2022-10-11T11:05:03.001Z,14.23
2022-10-11T11:07:38.000Z,14.82
2022-10-11T11:10:08.930Z,13.70
2022-10-11T11:12:44.727Z,14.90
2022-10-11T11:15:16.297Z,14.93
2022-10-11T11:17:52.728Z,17.13
2022-10-11T11:20:31.454Z,14.95
2022-10-11T11:23:04.800Z,15.05
2022-10-11T11:25:44.912Z,13.75
2022-10-11T11:28:27.531Z,15.90
2022-10-11T11:33:35.189Z,14.05
2022-10-11T11:36:04.952Z,14.32
2022-10-11T11:38:41.097Z,14.43
2022-10-11T11:41:12.232Z,13.65
2022-10-11T11:43:41.283Z,14.32
2022-10-11T11:46:15.300Z,13.68
2022-10-11T11:48:44.615Z,13.68
2022-10-11T11:51:16.743Z,13.60
2022-10-11T11:56:27.816Z,13.02
2022-10-11T11:59:03.204Z,13.00
2022-10-11T12:01:36.622Z,14.65
2022-10-11T12:04:06.669Z,14.60
2022-10-11T12:06:47.726Z,13.00
2022-10-11T12:09:23.887Z,13.15
2022-10-11T12:11:54.412Z,14.13
2022-10-11T12:14:27.888Z,13.55
2022-10-11T12:17:17.416Z,14.00
2022-10-11T12:20:00.754Z,13.40
2022-10-11T12:22:52.188Z,12.85
2022-10-11T12:25:43.961Z,13.52
2022-10-11T12:28:49.031Z,12.77
2022-10-11T12:31:23.690Z,12.77
2022-10-11T12:34:04.584Z,13.20
2022-10-11T12:36:39.040Z,13.05
2022-10-11T12:39:40.012Z,12.07
2022-10-11T12:42:18.960Z,12.20
2022-10-11T12:45:25.314Z,13.73
2022-10-11T12:47:59.904Z,13.93
2022-10-11T12:50:31.621Z,12.80
2022-10-11T12:53:04.967Z,12.55
2022-10-11T12:55:40.206Z,13.40
2022-10-11T12:58:29.713Z,12.80
2022-10-11T13:01:14.225Z,12.40
2022-10-11T13:03:44.113Z,12.52
2022-10-11T13:06:15.449Z,13.50
2022-10-11T13:08:45.349Z,12.40
2022-10-11T13:11:19.132Z,16.98
2022-10-11T13:13:51.570Z,14.10
2022-10-11T13:16:21.173Z,17.75
2022-10-11T13:18:51.692Z,13.55
2022-10-11T13:21:31.252Z,13.05
2022-10-11T13:24:04.255Z,12.98
2022-10-11T13:26:32.667Z,14.20
2022-10-11T13:29:01.210Z,12.73
2022-10-11T13:31:29.250Z,12.63
2022-10-11T13:33:59.183Z,13.23
2022-10-11T13:36:27.863Z,12.98
2022-10-11T13:38:57.426Z,14.05
2022-10-11T13:41:27.344Z,12.50
2022-10-11T13:43:56.144Z,13.68
2022-10-11T13:46:27.340Z,11.90
2022-10-11T13:49:00.578Z,12.10
2022-10-11T13:51:32.530Z,13.02
2022-10-11T13:54:02.784Z,12.38
2022-10-11T13:56:32.775Z,12.98
2022-10-11T13:59:01.548Z,13.57
2022-10-11T14:01:36.485Z,13.90
2022-10-11T14:04:06.716Z,12.43
2022-10-11T14:06:45.291Z,13.50
2022-10-11T14:09:20.368Z,12.57
2022-10-11T14:11:48.383Z,12.65
2022-10-11T14:14:41.678Z,12.68
2022-10-11T14:17:17.508Z,13.95
2022-10-11T14:19:47.770Z,12.63
2022-10-11T14:22:16.744Z,13.40
2022-10-11T14:24:49.321Z,13.30
2022-10-11T14:27:20.249Z,13.88
2022-10-11T14:30:06.137Z,14.45
2022-10-11T14:32:36.452Z,12.55
2022-10-11T14:35:06.867Z,13.45
2022-10-11T14:37:34.538Z,13.30
2022-10-11T14:40:02.225Z,12.40
2022-10-11T14:42:29.917Z,12.93
2022-10-11T14:44:57.584Z,14.10
2022-10-11T14:47:25.377Z,14.43
2022-10-11T14:49:53.042Z,14.07
2022-10-11T14:52:22.112Z,13.95
2022-10-11T14:54:50.232Z,14.90
2022-10-11T14:57:17.887Z,13.48
2022-10-11T14:59:45.688Z,15.00
2022-10-11T15:02:13.381Z,13.82
2022-10-11T15:04:41.046Z,14.18
2022-10-11T15:07:08.725Z,13.25
2022-10-11T15:09:37.990Z,13.60
2022-10-11T15:12:06.141Z,16.73
2022-10-11T15:14:33.760Z,13.85
2022-10-11T15:17:01.510Z,15.45
2022-10-11T15:19:29.600Z,15.38
2022-10-11T15:21:57.247Z,16.10
2022-10-11T15:24:25.077Z,15.20
2022-10-11T15:26:54.116Z,14.95
2022-10-11T15:29:24.126Z,13.90
2022-10-11T15:31:51.941Z,14.93
2022-10-11T15:34:19.585Z,15.32
2022-10-11T15:36:47.356Z,14.48
2022-10-11T15:39:24.758Z,15.10
2022-10-11T15:41:53.886Z,15.13
2022-10-11T15:44:21.586Z,14.75
2022-10-11T15:46:49.245Z,15.35
2022-10-11T15:49:17.072Z,14.80
2022-10-11T15:51:44.912Z,14.57
2022-10-11T15:54:12.558Z,14.75
2022-10-11T15:56:40.225Z,14.75
2022-10-11T15:59:11.443Z,15.02
2022-10-11T16:01:39.213Z,14.20
2022-10-11T16:04:06.903Z,14.82
2022-10-11T16:06:34.620Z,14.00
2022-10-11T16:09:02.284Z,14.82
2022-10-11T16:11:30.057Z,15.07
2022-10-11T16:13:57.837Z,14.93
2022-10-11T16:16:26.919Z,14.65
2022-10-11T16:18:54.615Z,14.50
2022-10-11T16:21:24.160Z,15.38
2022-10-11T16:23:51.821Z,14.93
2022-10-11T16:26:19.586Z,15.27
2022-10-11T16:28:47.908Z,14.65
2022-10-11T16:31:18.310Z,14.18
2022-10-11T16:33:47.849Z,14.07
2022-10-11T16:36:35.096Z,15.25
2022-10-11T16:39:05.238Z,17.60
2022-10-11T16:41:32.938Z,16.25
2022-10-11T16:44:00.797Z,15.88
2022-10-11T16:46:28.471Z,15.45
2022-10-11T16:48:57.561Z,15.10
2022-10-11T16:51:25.502Z,15.05
2022-10-11T16:53:53.241Z,15.20
2022-10-11T16:56:22.685Z,15.75
2022-10-11T16:58:50.457Z,15.07
2022-10-11T17:01:18.218Z,14.93
2022-10-11T17:03:45.977Z,14.73
2022-10-11T17:06:14.956Z,15.13
2022-10-11T17:08:42.640Z,15.18
2022-10-11T17:11:10.456Z,17.17
2022-10-11T17:13:38.200Z,14.85
2022-10-11T17:16:06.713Z,14.98
2022-10-11T17:18:34.722Z,15.45
2022-10-11T17:21:02.823Z,16.38
2022-10-11T17:23:31.873Z,16.55
2022-10-11T17:25:59.502Z,16.05
2022-10-11T17:28:27.316Z,16.17
2022-10-11T17:30:55.585Z,15.60
2022-10-11T17:33:23.324Z,15.90
2022-10-11T17:35:50.958Z,15.10
2022-10-11T17:38:19.796Z,15.65
2022-10-11T17:40:49.038Z,16.05
2022-10-11T17:43:16.802Z,14.98
2022-10-11T17:45:44.429Z,15.55
2022-10-11T17:48:12.146Z,15.90
2022-10-11T17:50:42.888Z,15.77
2022-10-11T17:53:12.505Z,15.60
2022-10-11T17:55:42.847Z,16.30
2022-10-11T17:58:12.816Z,16.15
2022-10-11T18:00:40.762Z,17.52
2022-10-11T18:03:08.446Z,18.13
2022-10-11T18:05:40.034Z,17.27
2022-10-11T18:08:08.182Z,15.25
2022-10-11T18:10:37.396Z,17.80
2022-10-11T18:13:06.901Z,15.82
2022-10-11T18:15:36.480Z,17.10
2022-10-11T18:18:06.940Z,17.33
2022-10-11T18:20:34.862Z,16.85
2022-10-11T18:23:02.491Z,15.77
2022-10-11T18:25:30.656Z,16.88
2022-10-11T18:27:58.281Z,16.85
2022-10-11T18:30:26.162Z,17.27
2022-10-11T18:32:55.290Z,17.88
2022-10-11T18:35:22.957Z,19.52
2022-10-11T18:37:51.446Z,18.95
2022-10-11T18:40:19.275Z,19.77
2022-10-11T18:42:46.991Z,19.75
2022-10-11T18:45:14.695Z,20.85
2022-10-11T18:47:42.376Z,20.77
2022-10-11T18:50:11.695Z,20.50
2022-10-11T18:52:44.363Z,21.92
2022-10-11T18:55:12.360Z,20.75
2022-10-11T18:57:40.021Z,22.05
2022-10-11T19:00:22.608Z,22.10
2022-10-11T19:02:56.776Z,22.67
2022-10-11T19:05:25.784Z,23.08
2022-10-11T19:07:53.416Z,21.38
2022-10-11T19:10:21.073Z,22.23
2022-10-11T19:12:48.717Z,23.33
2022-10-11T19:15:16.602Z,21.17
2022-10-11T19:17:44.273Z,21.95
2022-10-11T19:20:12.807Z,20.98
2022-10-11T19:22:41.835Z,19.02
2022-10-11T19:25:09.890Z,21.38
2022-10-11T19:27:37.546Z,20.98
2022-10-11T19:30:05.886Z,20.38
2022-10-11T19:32:33.619Z,23.50
2022-10-11T19:35:01.403Z,24.15
2022-10-11T19:37:29.205Z,22.90
2022-10-11T19:39:58.429Z,22.63
2022-10-11T19:42:26.082Z,23.38
2022-10-11T19:44:53.727Z,23.13
2022-10-11T19:47:21.352Z,21.27
2022-10-11T19:49:48.956Z,21.75
2022-10-11T19:52:16.654Z,23.38
2022-10-11T19:54:44.635Z,23.95
2022-10-11T19:57:13.607Z,22.45
2022-10-11T19:59:41.233Z,23.77
2022-10-11T20:02:10.491Z,24.23
2022-10-11T20:04:53.671Z,23.52
2022-10-11T20:07:21.391Z,23.77
2022-10-11T20:09:49.032Z,23.48
2022-10-11T20:12:18.050Z,23.83
2022-10-11T20:14:45.728Z,25.58
2022-10-11T20:17:13.659Z,25.75
2022-10-11T20:19:41.495Z,25.38
2022-10-11T20:22:09.151Z,24.35
2022-10-11T20:24:36.838Z,23.48
2022-10-11T20:27:07.647Z,24.13
2022-10-11T20:29:36.728Z,25.25
2022-10-11T20:32:04.368Z,24.70
2022-10-11T20:34:32.052Z,24.52
2022-10-11T20:36:59.729Z,24.27
2022-10-11T20:39:27.726Z,22.35
2022-10-11T20:41:55.347Z,24.70
2022-10-11T20:44:23.052Z,23.80
2022-10-11T20:46:52.079Z,23.35
2022-10-11T20:49:20.693Z,23.13
2022-10-11T20:51:48.340Z,23.25
2022-10-11T20:54:16.330Z,25.63
2022-10-11T20:56:43.999Z,24.00
2022-10-11T20:59:11.758Z,23.10
2022-10-11T21:01:40.901Z,24.13
2022-10-11T21:04:15.456Z,23.98
2022-10-11T21:06:43.296Z,22.75
2022-10-11T21:09:14.067Z,23.90
2022-10-11T21:11:44.136Z,24.13
2022-10-11T21:14:11.744Z,25.00
2022-10-11T21:16:39.484Z,24.55
2022-10-11T21:19:07.171Z,24.48
2022-10-11T21:21:36.208Z,23.67
2022-10-11T21:24:04.213Z,23.85
2022-10-11T21:26:32.055Z,26.23
2022-10-11T21:29:00.183Z,24.77
2022-10-11T21:31:33.561Z,24.60
2022-10-11T21:34:01.652Z,26.23
2022-10-11T21:36:29.302Z,24.52
2022-10-11T21:38:58.371Z,24.88
2022-10-11T21:41:29.013Z,24.95
2022-10-11T21:43:57.182Z,25.95
2022-10-11T21:46:41.769Z,25.95
2022-10-11T21:49:14.194Z,25.02
2022-10-11T21:51:41.944Z,25.45
2022-10-11T21:54:11.111Z,25.05
2022-10-11T21:56:38.765Z,24.75
2022-10-11T21:59:09.453Z,27.50
2022-10-11T22:01:40.219Z,26.63
2022-10-11T22:04:08.505Z,26.48
2022-10-11T22:06:36.584Z,27.60
2022-10-11T22:09:05.072Z,27.15
2022-10-11T22:11:34.079Z,26.08
2022-10-11T22:14:01.703Z,25.23
2022-10-11T22:16:29.382Z,25.55
2022-10-11T22:18:56.992Z,26.73
2022-10-11T22:21:25.691Z,25.40
2022-10-11T22:23:54.520Z,26.13
2022-10-11T22:26:24.668Z,26.85
2022-10-11T22:28:54.176Z,25.70
2022-10-11T22:31:22.499Z,25.05
2022-10-11T22:33:50.386Z,24.42
2022-10-11T22:36:19.159Z,27.00
2022-10-11T22:38:47.109Z,27.10
2022-10-11T22:41:14.890Z,26.73
2022-10-11T22:43:42.579Z,25.63
2022-10-11T22:46:11.621Z,28.20
2022-10-11T22:48:39.296Z,27.05
2022-10-11T22:51:07.046Z,26.45
2022-10-11T22:53:35.036Z,25.60
2022-10-11T22:56:02.721Z,25.65
2022-10-11T22:58:30.397Z,27.42
2022-10-11T23:00:58.080Z,25.85
2022-10-11T23:03:27.170Z,27.10
2022-10-11T23:05:56.284Z,26.25
2022-10-11T23:08:23.954Z,28.40
2022-10-11T23:10:51.641Z,28.75
2022-10-11T23:13:19.478Z,30.10
2022-10-11T23:15:47.204Z,29.55
2022-10-11T23:18:16.300Z,29.25
2022-10-11T23:20:45.486Z,30.38
2022-10-11T23:23:13.209Z,29.33
2022-10-11T23:25:40.824Z,30.13
2022-10-11T23:28:08.630Z,31.60
2022-10-11T23:30:36.401Z,31.17
2022-10-11T23:33:04.084Z,29.95
2022-10-11T23:35:31.865Z,31.10
2022-10-11T23:38:00.874Z,29.98
2022-10-11T23:40:28.574Z,29.27
2022-10-11T23:42:56.650Z,29.38
2022-10-11T23:45:24.349Z,31.02
2022-10-11T23:47:51.980Z,31.08
2022-10-11T23:50:19.649Z,30.15
2022-10-11T23:52:47.295Z,29.98
2022-10-11T23:55:16.538Z,32.15
2022-10-11T23:57:44.180Z,33.45
